createdAt,value
2022-08-16T00:02:59.031Z,98920.72
2022-08-16T00:06:02.588Z,98914.56
2022-08-16T00:09:07.761Z,98909.72
2022-08-16T00:12:18.078Z,98914.75
2022-08-16T00:15:25.284Z,98905.75
2022-08-16T00:18:48.636Z,98905.66
2022-08-16T00:21:55.248Z,98904.31
2022-08-16T00:25:03.253Z,98915.78
2022-08-16T00:28:07.266Z,98923.06
2022-08-16T00:31:11.539Z,98920.19
2022-08-16T00:34:18.125Z,98926.31
2022-08-16T00:37:24.601Z,98932.56
2022-08-16T00:40:43.739Z,98930.44
2022-08-16T00:43:53.029Z,98933.69
2022-08-16T00:47:06.450Z,98939.50
2022-08-16T00:50:11.765Z,98931.78
2022-08-16T00:53:18.756Z,98926.44
2022-08-16T00:56:58.035Z,98930.22
2022-08-16T00:59:59.089Z,98931.06
2022-08-16T01:03:12.598Z,98933.88
2022-08-16T01:06:39.679Z,98930.31
2022-08-16T01:09:43.778Z,98938.53
2022-08-16T01:12:49.194Z,98944.59
2022-08-16T01:16:03.690Z,98941.13
2022-08-16T01:19:19.665Z,98941.81
2022-08-16T01:22:47.141Z,98943.88
2022-08-16T01:26:00.185Z,98940.63
2022-08-16T01:29:35.715Z,98948.31
2022-08-16T01:33:02.159Z,98958.91
2022-08-16T01:36:15.387Z,98953.63
2022-08-16T01:39:21.783Z,98951.47
2022-08-16T01:42:28.395Z,98959.00
2022-08-16T01:45:40.852Z,98960.22
2022-08-16T01:48:48.868Z,98952.00
2022-08-16T01:51:57.169Z,98959.69
2022-08-16T01:55:27.331Z,98956.19
2022-08-16T01:58:40.872Z,98957.31
2022-08-16T02:01:59.993Z,98963.63
2022-08-16T02:05:06.662Z,98958.88
2022-08-16T02:08:10.749Z,98961.53
2022-08-16T02:11:48.545Z,98962.03
2022-08-16T02:14:59.436Z,98963.63
2022-08-16T02:18:04.493Z,98964.50
2022-08-16T02:21:13.051Z,98957.00
2022-08-16T02:24:31.588Z,98968.44
2022-08-16T02:27:36.058Z,98967.22
2022-08-16T02:30:44.290Z,98974.50
2022-08-16T02:33:53.530Z,98964.25
2022-08-16T02:37:05.499Z,98962.34
2022-08-16T02:40:12.544Z,98955.22
2022-08-16T02:43:20.707Z,98956.38
2022-08-16T02:46:33.610Z,98958.78
2022-08-16T02:50:28.006Z,98964.09
2022-08-16T02:53:02.909Z,98961.41
2022-08-16T02:56:11.174Z,98961.81
2022-08-16T02:59:15.007Z,98968.94
2022-08-16T03:02:21.132Z,98964.78
2022-08-16T03:05:36.688Z,98979.34
2022-08-16T03:08:50.323Z,98972.06
2022-08-16T03:11:58.646Z,98979.09
2022-08-16T03:15:05.076Z,98972.06
2022-08-16T03:18:18.753Z,98983.28
2022-08-16T03:21:38.288Z,98983.31
2022-08-16T03:24:44.694Z,98997.03
2022-08-16T03:27:48.710Z,99001.25
2022-08-16T03:30:55.413Z,99011.03
2022-08-16T03:34:01.257Z,99005.75
2022-08-16T03:37:05.740Z,99007.75
2022-08-16T03:40:31.785Z,99018.09
2022-08-16T03:43:51.379Z,99025.06
2022-08-16T03:46:58.264Z,99016.28
2022-08-16T03:50:26.146Z,99017.56
2022-08-16T03:53:37.846Z,99011.72
2022-08-16T03:56:57.068Z,99016.16
2022-08-16T04:00:20.595Z,99021.41
2022-08-16T04:03:38.975Z,99005.78
2022-08-16T04:06:46.986Z,99007.81
2022-08-16T04:09:50.908Z,99013.19
2022-08-16T04:13:00.666Z,99009.81
2022-08-16T04:16:26.522Z,99009.88
2022-08-16T04:19:37.898Z,99019.31
2022-08-16T04:22:51.959Z,99021.22
2022-08-16T04:25:55.425Z,99020.16
2022-08-16T04:29:16.761Z,99017.91
2022-08-16T04:32:23.331Z,99007.41
2022-08-16T04:35:34.167Z,99003.94
2022-08-16T04:38:39.382Z,99027.44
2022-08-16T04:41:45.439Z,99025.16
2022-08-16T04:44:54.668Z,99047.16
2022-08-16T04:48:02.487Z,99051.91
2022-08-16T04:51:13.420Z,99047.31
2022-08-16T04:54:23.494Z,99037.75
2022-08-16T04:57:30.195Z,99038.47
2022-08-16T05:00:36.136Z,99024.44
2022-08-16T05:04:00.468Z,99028.53
2022-08-16T05:07:10.942Z,99024.34
2022-08-16T05:10:36.953Z,99028.00
2022-08-16T05:13:45.850Z,99025.63
2022-08-16T05:16:55.064Z,99045.53
2022-08-16T05:19:59.280Z,99046.56
2022-08-16T05:23:15.044Z,99035.47
2022-08-16T05:26:21.651Z,99026.09
2022-08-16T05:29:59.435Z,99027.59
2022-08-16T05:32:53.284Z,99026.69
2022-08-16T05:35:59.040Z,99021.94
2022-08-16T05:39:10.190Z,99019.88
2022-08-16T05:42:16.305Z,99024.25
2022-08-16T05:45:23.869Z,99016.50
2022-08-16T05:48:31.845Z,99026.91
2022-08-16T05:51:41.910Z,99033.63
2022-08-16T05:55:01.130Z,99043.88
2022-08-16T05:58:31.575Z,99042.28
2022-08-16T06:01:37.845Z,99034.75
2022-08-16T06:04:45.149Z,99031.31
2022-08-16T06:07:58.216Z,99025.88
2022-08-16T06:11:13.264Z,99018.53
2022-08-16T06:14:21.268Z,99016.16
2022-08-16T06:17:24.708Z,99022.13
2022-08-16T06:20:55.909Z,99023.00
2022-08-16T06:24:01.264Z,99021.97
2022-08-16T06:27:08.532Z,99026.31
2022-08-16T06:30:19.857Z,99025.38
2022-08-16T06:33:25.452Z,99023.63
2022-08-16T06:36:29.386Z,99015.69
2022-08-16T06:39:49.337Z,99012.06
2022-08-16T06:43:13.492Z,98993.25
2022-08-16T06:46:34.262Z,98994.06
2022-08-16T06:49:52.849Z,98994.19
2022-08-16T06:53:06.825Z,98993.75
2022-08-16T06:56:22.972Z,98994.84
2022-08-16T06:59:58.110Z,98992.88
2022-08-16T07:03:27.651Z,98990.31
2022-08-16T07:06:34.062Z,98979.94
2022-08-16T07:09:44.660Z,98983.84
2022-08-16T07:13:03.407Z,98984.09
2022-08-16T07:16:16.831Z,98977.63
2022-08-16T07:19:33.663Z,98977.13
2022-08-16T07:22:53.145Z,98977.59
2022-08-16T07:26:24.928Z,98984.75
2022-08-16T07:29:32.107Z,98980.28
2022-08-16T07:32:37.080Z,98981.25
2022-08-16T07:35:49.578Z,98985.25
2022-08-16T07:38:55.528Z,98985.47
2022-08-16T07:41:59.754Z,99000.31
2022-08-16T07:45:03.421Z,99003.78
2022-08-16T07:48:14.958Z,98992.09
2022-08-16T07:51:24.379Z,98999.81
2022-08-16T07:54:37.862Z,98991.63
2022-08-16T07:58:00.587Z,99000.94
2022-08-16T08:01:10.764Z,98998.25
2022-08-16T08:04:26.730Z,98990.19
2022-08-16T08:07:38.782Z,98998.38
2022-08-16T08:10:49.160Z,98995.47
2022-08-16T08:13:54.441Z,98990.28
2022-08-16T08:17:01.324Z,98982.50
2022-08-16T08:20:08.859Z,98977.66
2022-08-16T08:23:15.823Z,98978.06
2022-08-16T08:26:22.299Z,98986.91
2022-08-16T08:29:37.086Z,98977.94
2022-08-16T08:33:01.822Z,98981.50
2022-08-16T08:36:21.793Z,98978.91
2022-08-16T08:39:30.444Z,98970.84
2022-08-16T08:42:36.633Z,98966.66
2022-08-16T08:45:52.773Z,98974.88
2022-08-16T08:48:59.210Z,98966.69
2022-08-16T08:52:11.629Z,98977.81
2022-08-16T08:55:36.663Z,98972.59
2022-08-16T08:58:40.121Z,98965.53
2022-08-16T09:02:30.965Z,98965.72
2022-08-16T09:05:37.216Z,98958.59
2022-08-16T09:08:47.434Z,98954.72
2022-08-16T09:12:06.602Z,98956.97
2022-08-16T09:15:40.079Z,98969.50
2022-08-16T09:18:43.900Z,98969.22
2022-08-16T09:21:55.969Z,98970.66
2022-08-16T09:25:11.239Z,98966.69
2022-08-16T09:29:13.576Z,98958.25
2022-08-16T09:31:53.633Z,98960.47
2022-08-16T09:34:58.332Z,98961.03
2022-08-16T09:38:01.961Z,98956.50
2022-08-16T09:41:14.868Z,98948.06
2022-08-16T09:45:10.597Z,98955.69
2022-08-16T09:47:56.784Z,98947.38
2022-08-16T09:51:01.747Z,98951.69
2022-08-16T09:54:05.554Z,98948.31
2022-08-16T09:57:12.204Z,98948.63
2022-08-16T10:00:42.371Z,98936.53
2022-08-16T10:04:01.579Z,98920.88
2022-08-16T10:07:15.035Z,98926.03
2022-08-16T10:10:31.077Z,98919.31
2022-08-16T10:13:34.743Z,98919.88
2022-08-16T10:16:39.476Z,98918.88
2022-08-16T10:19:43.463Z,98919.50
2022-08-16T10:22:47.169Z,98917.25
2022-08-16T10:27:18.693Z,98918.84
2022-08-16T10:29:20.126Z,98911.44
2022-08-16T10:32:25.857Z,98913.06
2022-08-16T10:35:34.305Z,98906.25
2022-08-16T10:38:52.044Z,98905.19
2022-08-16T10:41:55.622Z,98899.59
2022-08-16T10:44:59.042Z,98903.75
2022-08-16T10:48:06.480Z,98898.91
2022-08-16T10:51:34.403Z,98896.03
2022-08-16T10:54:59.424Z,98899.72
2022-08-16T10:58:11.649Z,98891.97
2022-08-16T11:01:40.142Z,98896.09
2022-08-16T11:08:07.023Z,98898.13
2022-08-16T11:11:19.154Z,98895.00
2022-08-16T11:14:24.413Z,98888.81
2022-08-16T11:17:27.810Z,98891.81
2022-08-16T11:20:42.266Z,98890.38
2022-08-16T11:23:57.845Z,98890.84
2022-08-16T11:30:37.681Z,98888.88
2022-08-16T11:33:54.995Z,98890.06
2022-08-16T11:37:01.453Z,98879.28
2022-08-16T11:40:08.182Z,98879.66
2022-08-16T11:43:16.787Z,98873.75
2022-08-16T11:46:44.189Z,98880.00
2022-08-16T11:49:44.049Z,98870.63
2022-08-16T11:52:48.715Z,98872.28
2022-08-16T11:55:54.555Z,98877.22
2022-08-16T11:58:58.484Z,98878.34
2022-08-16T12:02:04.407Z,98872.78
2022-08-16T12:05:27.305Z,98868.19
2022-08-16T12:08:33.203Z,98862.88
2022-08-16T12:11:36.690Z,98860.91
2022-08-16T12:14:41.225Z,98854.41
2022-08-16T12:17:44.937Z,98847.97
2022-08-16T12:20:48.429Z,98827.41
2022-08-16T12:23:53.655Z,98829.09
2022-08-16T12:26:57.572Z,98830.00
2022-08-16T12:30:04.610Z,98819.44
2022-08-16T12:33:11.947Z,98819.13
2022-08-16T12:36:17.763Z,98806.38
2022-08-16T12:39:22.551Z,98818.88
2022-08-16T12:42:35.217Z,98808.28
2022-08-16T12:45:44.707Z,98806.22
2022-08-16T12:48:59.378Z,98814.66
2022-08-16T12:52:02.813Z,98816.03
2022-08-16T12:55:08.724Z,98813.19
2022-08-16T12:58:14.165Z,98812.06
2022-08-16T13:01:37.291Z,98810.94
2022-08-16T13:04:40.643Z,98796.63
2022-08-16T13:07:51.844Z,98799.78
2022-08-16T13:10:58.308Z,98797.34
2022-08-16T13:14:01.688Z,98793.03
2022-08-16T13:17:17.072Z,98795.84
2022-08-16T13:20:28.994Z,98796.09
2022-08-16T13:23:33.220Z,98790.50
2022-08-16T13:26:38.051Z,98782.28
2022-08-16T13:29:43.887Z,98782.41
2022-08-16T13:32:47.836Z,98781.28
2022-08-16T13:35:57.670Z,98781.56
2022-08-16T13:39:07.151Z,98784.19
2022-08-16T13:42:13.369Z,98771.75
2022-08-16T13:45:19.439Z,98767.03
2022-08-16T13:48:24.812Z,98763.31
2022-08-16T13:51:30.692Z,98764.25
2022-08-16T13:54:34.336Z,98769.56
2022-08-16T13:58:34.216Z,98766.22
2022-08-16T14:01:03.377Z,98764.75
2022-08-16T14:04:06.976Z,98774.03
2022-08-16T14:07:24.580Z,98764.50
2022-08-16T14:10:28.266Z,98748.91
2022-08-16T14:13:33.140Z,98752.06
2022-08-16T14:16:37.523Z,98755.81
2022-08-16T14:19:45.017Z,98764.28
2022-08-16T14:22:52.371Z,98767.03
2022-08-16T14:25:58.388Z,98765.28
2022-08-16T14:29:03.650Z,98759.66
2022-08-16T14:32:09.312Z,98756.41
2022-08-16T14:35:21.138Z,98756.28
2022-08-16T14:38:24.433Z,98758.34
2022-08-16T14:41:33.179Z,98747.56
2022-08-16T14:44:39.152Z,98746.31
2022-08-16T14:47:43.157Z,98751.72
2022-08-16T14:50:49.566Z,98749.34
2022-08-16T14:53:53.388Z,98747.31
2022-08-16T14:56:57.586Z,98741.13
2022-08-16T15:00:05.967Z,98744.66
2022-08-16T15:03:11.205Z,98735.91
2022-08-16T15:06:14.792Z,98737.25
2022-08-16T15:09:20.350Z,98749.63
2022-08-16T15:12:31.138Z,98731.28
2022-08-16T15:15:39.873Z,98735.69
2022-08-16T15:18:46.716Z,98743.72
2022-08-16T15:21:53.814Z,98742.34
2022-08-16T15:25:00.035Z,98745.06
2022-08-16T15:28:07.017Z,98751.88
2022-08-16T15:31:29.005Z,98758.44
2022-08-16T15:34:32.973Z,98756.13
2022-08-16T15:37:53.360Z,98757.28
2022-08-16T15:40:59.140Z,98761.38
2022-08-16T15:44:05.172Z,98768.47
2022-08-16T15:47:16.541Z,98764.75
2022-08-16T15:50:22.014Z,98765.75
2022-08-16T15:53:27.425Z,98766.59
2022-08-16T15:56:35.610Z,98763.19
2022-08-16T15:59:49.150Z,98756.13
2022-08-16T16:03:04.544Z,98769.09
2022-08-16T16:06:12.286Z,98763.56
2022-08-16T16:09:18.000Z,98771.38
2022-08-16T16:12:53.508Z,98765.44
2022-08-16T16:15:56.740Z,98765.19
2022-08-16T16:19:03.132Z,98776.69
2022-08-16T16:22:06.682Z,98774.56
2022-08-16T16:25:10.953Z,98775.84
2022-08-16T16:29:08.272Z,98776.06
2022-08-16T16:31:41.443Z,98774.16
2022-08-16T16:34:48.969Z,98781.91
2022-08-16T16:37:56.615Z,98774.59
2022-08-16T16:41:02.245Z,98783.53
2022-08-16T16:44:06.193Z,98785.13
2022-08-16T16:47:10.296Z,98784.94
2022-08-16T16:50:16.554Z,98785.09
2022-08-16T16:53:23.172Z,98795.19
2022-08-16T16:56:32.330Z,98803.28
2022-08-16T16:59:37.708Z,98807.09
2022-08-16T17:02:49.664Z,98817.22
2022-08-16T17:06:08.732Z,98822.34
2022-08-16T17:09:14.021Z,98828.16
2022-08-16T17:12:24.657Z,98825.31
2022-08-16T17:15:36.163Z,98824.72
2022-08-16T17:19:17.516Z,98837.34
2022-08-16T17:22:05.443Z,98827.72
2022-08-16T17:25:17.786Z,98834.19
2022-08-16T17:28:58.811Z,98838.13
2022-08-16T17:31:44.441Z,98837.69
2022-08-16T17:34:51.537Z,98837.47
2022-08-16T17:37:58.079Z,98842.47
2022-08-16T17:41:02.773Z,98844.75
2022-08-16T17:44:08.948Z,98845.56
2022-08-16T17:47:12.814Z,98858.03
2022-08-16T17:50:16.419Z,98860.22
2022-08-16T17:53:21.881Z,98868.13
2022-08-16T17:56:25.516Z,98869.81
2022-08-16T17:59:29.006Z,98875.28
2022-08-16T18:02:43.776Z,98880.16
2022-08-16T18:05:49.165Z,98878.81
2022-08-16T18:09:01.679Z,98891.22
2022-08-16T18:12:44.528Z,98887.75
2022-08-16T18:15:37.258Z,98895.28
2022-08-16T18:18:40.605Z,98899.28
2022-08-16T18:22:01.682Z,98907.09
2022-08-16T18:25:07.599Z,98902.22
2022-08-16T18:28:10.986Z,98907.56
2022-08-16T18:31:14.387Z,98902.59
2022-08-16T18:34:18.086Z,98906.22
2022-08-16T18:37:27.672Z,98907.13
2022-08-16T18:40:36.706Z,98902.03
2022-08-16T18:44:22.946Z,98899.94
2022-08-16T18:47:03.465Z,98913.84
2022-08-16T18:50:07.779Z,98906.25
2022-08-16T18:53:14.350Z,98918.25
2022-08-16T18:56:19.109Z,98918.19
2022-08-16T18:59:22.661Z,98917.91
2022-08-16T19:02:56.759Z,98913.97
2022-08-16T19:05:52.020Z,98927.22
2022-08-16T19:08:55.413Z,98923.84
2022-08-16T19:12:05.054Z,98924.38
2022-08-16T19:15:12.029Z,98923.75
2022-08-16T19:18:16.974Z,98924.84
2022-08-16T19:21:20.304Z,98932.69
2022-08-16T19:24:23.660Z,98934.72
2022-08-16T19:27:34.082Z,98934.72
2022-08-16T19:30:39.774Z,98942.88
2022-08-16T19:33:53.971Z,98949.53
2022-08-16T19:36:58.092Z,98947.44
2022-08-16T19:40:01.910Z,98951.97
2022-08-16T19:43:09.081Z,98955.00
2022-08-16T19:46:12.438Z,98959.50
2022-08-16T19:49:16.547Z,98957.88
2022-08-16T19:52:22.337Z,98962.06
2022-08-16T19:55:25.731Z,98965.81
2022-08-16T19:58:30.868Z,98962.16
2022-08-16T20:01:37.363Z,98960.50
2022-08-16T20:04:43.780Z,98969.47
2022-08-16T20:07:47.195Z,98973.09
2022-08-16T20:10:51.327Z,98972.28
2022-08-16T20:13:56.036Z,98971.34
2022-08-16T20:17:01.144Z,98974.38
2022-08-16T20:20:05.815Z,98969.03
2022-08-16T20:23:24.017Z,98969.53
2022-08-16T20:26:29.626Z,98976.25
2022-08-16T20:29:34.644Z,98971.25
2022-08-16T20:32:38.394Z,98980.94
2022-08-16T20:35:42.999Z,98980.50
2022-08-16T20:38:47.831Z,98986.03
2022-08-16T20:41:51.693Z,98991.69
2022-08-16T20:44:56.533Z,98985.66
2022-08-16T20:48:00.066Z,98990.06
2022-08-16T20:51:04.238Z,98993.38
2022-08-16T20:54:07.596Z,98985.44
2022-08-16T20:57:10.954Z,98988.84
2022-08-16T21:00:17.182Z,98997.38
2022-08-16T21:03:21.147Z,98995.06
2022-08-16T21:06:25.721Z,98995.13
2022-08-16T21:09:33.683Z,99004.56
2022-08-16T21:12:37.987Z,98994.81
2022-08-16T21:15:42.802Z,99002.69
2022-08-16T21:18:46.889Z,99004.94
2022-08-16T21:21:50.806Z,99007.03
2022-08-16T21:24:54.686Z,99013.25
2022-08-16T21:28:40.644Z,99011.34
2022-08-16T21:31:23.752Z,99012.97
2022-08-16T21:34:27.054Z,99019.72
2022-08-16T21:37:30.429Z,99018.41
2022-08-16T21:40:36.267Z,99018.41
2022-08-16T21:43:39.646Z,99026.44
2022-08-16T21:46:44.655Z,99023.28
2022-08-16T21:49:47.943Z,99021.09
2022-08-16T21:52:51.733Z,99026.19
2022-08-16T21:55:57.111Z,99018.66
2022-08-16T21:59:00.563Z,99022.41
2022-08-16T22:02:05.709Z,99022.69
2022-08-16T22:05:09.942Z,99021.34
2022-08-16T22:08:14.024Z,99021.34
2022-08-16T22:11:17.347Z,99019.19
2022-08-16T22:14:20.693Z,99017.34
2022-08-16T22:17:26.072Z,99013.56
2022-08-16T22:20:30.521Z,99007.16
2022-08-16T22:23:34.587Z,99011.44
2022-08-16T22:26:42.991Z,99003.38
2022-08-16T22:29:46.842Z,99008.16
2022-08-16T22:32:51.943Z,99007.34
2022-08-16T22:35:57.398Z,99009.22
2022-08-16T22:39:03.618Z,99011.41
2022-08-16T22:42:09.840Z,99007.84
2022-08-16T22:45:13.941Z,99005.94
2022-08-16T22:48:18.921Z,98999.06
2022-08-16T22:51:23.832Z,99004.09
2022-08-16T22:54:41.348Z,99006.78
2022-08-16T22:57:50.492Z,99012.97
2022-08-16T23:00:53.876Z,99004.41
2022-08-16T23:03:58.916Z,99008.16
2022-08-16T23:07:02.448Z,99005.50
2022-08-16T23:10:08.380Z,99007.09
2022-08-16T23:13:12.146Z,99005.53
2022-08-16T23:16:15.860Z,99011.38
2022-08-16T23:19:20.614Z,99012.22
2022-08-16T23:22:24.646Z,99014.09
2022-08-16T23:25:31.841Z,99007.69
2022-08-16T23:28:35.160Z,99007.16
2022-08-16T23:31:38.594Z,99007.69
2022-08-16T23:34:43.435Z,99013.84
2022-08-16T23:37:47.187Z,99014.09
2022-08-16T23:40:51.452Z,99013.53
2022-08-16T23:43:54.855Z,99007.94
2022-08-16T23:46:58.239Z,99004.47
2022-08-16T23:50:03.931Z,99003.38
2022-08-16T23:53:10.307Z,98995.81
2022-08-16T23:56:15.540Z,98998.00
2022-08-16T23:59:18.876Z,99002.53
